Time;durP1;ratioP1;P1;durP2;ratioP2;P2;SDS_P1;SDS_P2;PMS_P1;PMS_P2;Temp;Humidity;BMP_temperature;BMP_pressure;BME280_temperature;BME280_humidity;BME280_pressure;Samples;Min_cycle;Max_cycle;Signal;HPM_P1;HPM_P2
2021/05/13 00:01:06;;;;;;;6.10;4.50;;;13.00;99.90;;;;;;5041527;28;20572;-69
2021/05/13 00:03:35;;;;;;;7.90;4.57;;;12.90;99.90;;;;;;5044043;28;20195;-71
2021/05/13 00:06:02;;;;;;;6.43;4.23;;;12.90;99.90;;;;;;5043410;28;20868;-70
2021/05/13 00:08:28;;;;;;;4.27;3.90;;;12.90;99.90;;;;;;5042023;28;20434;-70
2021/05/13 00:11:02;;;;;;;5.20;4.70;;;12.80;99.90;;;;;;5040962;28;20430;-70
2021/05/13 00:13:29;;;;;;;10.13;4.73;;;12.80;99.90;;;;;;5040419;28;20820;-69
2021/05/13 00:15:55;;;;;;;8.83;4.80;;;12.80;99.90;;;;;;5042002;28;20466;-69
2021/05/13 00:18:21;;;;;;;4.30;3.90;;;12.80;99.90;;;;;;5040320;28;21035;-71
2021/05/13 00:20:47;;;;;;;4.57;3.93;;;12.70;99.90;;;;;;5040574;28;20225;-70
2021/05/13 00:23:12;;;;;;;4.10;3.80;;;12.70;99.90;;;;;;5039240;28;20198;-70
2021/05/13 00:25:38;;;;;;;5.50;4.97;;;12.70;99.90;;;;;;5041032;28;20446;-68
2021/05/13 00:28:04;;;;;;;4.90;4.50;;;12.70;99.90;;;;;;5041714;28;20196;-70
2021/05/13 00:30:30;;;;;;;4.90;4.40;;;12.60;99.90;;;;;;5041704;28;20195;-69
2021/05/13 00:32:56;;;;;;;6.40;4.40;;;12.60;99.90;;;;;;5040215;28;21144;-68
2021/05/13 00:35:23;;;;;;;5.03;4.17;;;12.50;99.90;;;;;;5040490;28;20709;-72
2021/05/13 00:37:49;;;;;;;5.80;4.93;;;12.50;99.90;;;;;;5039701;28;20184;-68
2021/05/13 00:40:16;;;;;;;8.43;4.80;;;12.50;99.90;;;;;;5041820;28;20438;-69
2021/05/13 00:42:42;;;;;;;5.10;4.40;;;12.50;99.90;;;;;;5039939;28;20508;-70
2021/05/13 00:45:10;;;;;;;7.67;4.77;;;12.50;99.90;;;;;;5040233;28;20975;-70
2021/05/13 00:47:43;;;;;;;5.63;4.17;;;12.50;99.90;;;;;;5039439;28;20176;-69
2021/05/13 00:50:09;;;;;;;4.40;4.00;;;12.50;99.90;;;;;;5041522;28;20434;-69
2021/05/13 00:52:35;;;;;;;4.80;4.40;;;12.50;99.90;;;;;;5040708;28;21056;-70
2021/05/13 00:55:01;;;;;;;5.20;3.47;;;12.50;99.90;;;;;;5041940;28;20458;-70
2021/05/13 00:57:27;;;;;;;5.23;4.17;;;12.50;99.90;;;;;;5039270;28;20187;-69
2021/05/13 00:59:58;;;;;;;4.60;3.67;;;12.40;99.90;;;;;;5043668;28;20284;-69
2021/05/13 01:02:23;;;;;;;4.93;4.43;;;12.40;99.90;;;;;;5040413;28;20504;-70
2021/05/13 01:04:49;;;;;;;4.87;3.80;;;12.40;99.90;;;;;;5040306;28;20822;-68
2021/05/13 01:07:15;;;;;;;5.73;4.40;;;12.40;99.90;;;;;;5041987;28;20271;-69
2021/05/13 01:09:40;;;;;;;4.47;3.90;;;12.40;99.90;;;;;;5037904;28;20631;-69
2021/05/13 01:12:12;;;;;;;6.60;3.93;;;12.40;99.90;;;;;;5038883;28;20873;-70
2021/05/13 01:14:42;;;;;;;4.80;3.50;;;12.30;99.90;;;;;;5037316;28;20338;-68
2021/05/13 01:19:39;;;;;;;6.70;3.50;;;12.20;99.90;;;;;;5038313;28;21010;-70
2021/05/13 01:22:05;;;;;;;10.17;4.27;;;12.20;99.90;;;;;;5039507;28;20990;-69
2021/05/13 01:24:32;;;;;;;4.60;3.63;;;12.20;99.90;;;;;;5020930;28;20453;-70
2021/05/13 01:26:58;;;;;;;4.40;3.83;;;12.20;99.90;;;;;;5038046;28;20198;-69
2021/05/13 01:29:25;;;;;;;5.17;4.03;;;12.20;99.90;;;;;;5039946;28;20821;-69
2021/05/13 01:31:52;;;;;;;5.87;4.43;;;12.10;99.90;;;;;;5038950;28;20457;-69
2021/05/13 01:34:18;;;;;;;4.80;3.43;;;12.10;99.90;;;;;;5038960;28;20454;-70
2021/05/13 01:36:44;;;;;;;4.17;3.83;;;12.10;99.90;;;;;;5042234;28;20437;-71
2021/05/13 01:39:11;;;;;;;3.70;3.40;;;12.10;99.90;;;;;;5044532;28;20434;-70
2021/05/13 01:41:39;;;;;;;3.57;3.23;;;12.10;99.90;;;;;;5043238;28;20473;-70
2021/05/13 01:44:06;;;;;;;5.17;4.67;;;12.00;99.90;;;;;;5043652;28;20600;-69
2021/05/13 01:46:32;;;;;;;7.00;3.83;;;12.00;99.90;;;;;;5043093;28;20434;-70
2021/05/13 01:48:58;;;;;;;4.03;3.43;;;12.00;99.90;;;;;;5041562;28;20442;-70
2021/05/13 01:51:23;;;;;;;4.50;3.50;;;11.90;99.90;;;;;;5025255;28;20463;-69
2021/05/13 01:53:49;;;;;;;3.93;3.63;;;12.00;99.90;;;;;;5043074;28;20188;-69
2021/05/13 01:56:16;;;;;;;4.10;3.33;;;11.90;99.90;;;;;;5045695;28;20207;-69
2021/05/13 01:58:43;;;;;;;6.87;4.27;;;11.90;99.90;;;;;;5042794;28;20446;-70
2021/05/13 02:01:11;;;;;;;4.93;4.13;;;11.90;99.90;;;;;;5045106;28;20466;-70
2021/05/13 02:03:37;;;;;;;6.43;4.40;;;11.80;99.90;;;;;;5045359;28;20495;-69
2021/05/13 02:06:04;;;;;;;11.37;4.50;;;11.80;99.90;;;;;;5042961;28;20478;-69
2021/05/13 02:08:31;;;;;;;5.30;4.30;;;11.80;99.90;;;;;;5043026;28;20862;-70
2021/05/13 02:10:57;;;;;;;5.80;3.83;;;11.80;99.90;;;;;;5043570;28;20478;-70
2021/05/13 02:13:22;;;;;;;5.63;4.23;;;11.80;99.90;;;;;;5043408;28;20442;-70
2021/05/13 02:15:48;;;;;;;3.93;3.63;;;11.70;99.90;;;;;;5042264;28;20519;-70
2021/05/13 02:18:14;;;;;;;4.33;3.70;;;11.70;99.90;;;;;;5041776;28;20262;-67
2021/05/13 02:20:40;;;;;;;4.13;3.73;;;11.70;99.90;;;;;;5024807;28;20560;-68
2021/05/13 02:23:06;;;;;;;4.40;3.63;;;11.80;99.90;;;;;;5042082;28;20492;-69
2021/05/13 02:25:32;;;;;;;6.03;4.00;;;11.70;99.90;;;;;;5043336;28;20306;-70
2021/05/13 02:28:01;;;;;;;7.10;3.80;;;11.70;99.90;;;;;;5040837;28;20196;-69
2021/05/13 02:30:28;;;;;;;4.37;3.97;;;11.70;99.90;;;;;;5042015;28;20443;-70
2021/05/13 02:32:54;;;;;;;4.67;3.50;;;11.70;99.90;;;;;;5025534;28;20437;-71
2021/05/13 02:35:20;;;;;;;6.83;4.23;;;11.70;99.90;;;;;;5041507;28;20544;-69
2021/05/13 02:37:47;;;;;;;5.27;3.70;;;11.70;99.90;;;;;;5043182;28;21103;-69
2021/05/13 02:40:17;;;;;;;5.80;4.23;;;11.70;99.90;;;;;;5043490;28;20441;-70
2021/05/13 02:42:44;;;;;;;4.40;4.00;;;11.70;99.90;;;;;;5040825;28;21365;-70
2021/05/13 02:45:11;;;;;;;4.63;4.23;;;11.70;99.90;;;;;;5042542;28;20450;-69
2021/05/13 02:47:37;;;;;;;4.83;3.27;;;11.70;99.90;;;;;;5042226;28;20422;-70
2021/05/13 02:50:04;;;;;;;3.93;3.63;;;11.70;99.90;;;;;;5042679;28;20438;-70
2021/05/13 02:52:30;;;;;;;3.87;3.43;;;11.60;99.90;;;;;;5042089;28;20441;-71
2021/05/13 02:54:56;;;;;;;4.10;3.60;;;11.70;99.90;;;;;;5042784;28;20458;-70
2021/05/13 02:57:21;;;;;;;3.83;3.50;;;11.60;99.90;;;;;;5042317;28;20183;-69
2021/05/13 02:59:52;;;;;;;4.00;3.60;;;11.70;99.90;;;;;;5041840;28;20203;-70
2021/05/13 03:02:18;;;;;;;3.67;3.37;;;11.60;99.90;;;;;;5041592;28;20580;-70
2021/05/13 03:04:44;;;;;;;4.10;3.70;;;11.60;99.90;;;;;;5044142;28;20463;-69
2021/05/13 03:07:14;;;;;;;6.43;4.17;;;11.60;99.90;;;;;;5041769;28;20740;-70
2021/05/13 03:09:47;;;;;;;4.80;3.07;;;11.60;99.90;;;;;;5041286;28;20830;-70
2021/05/13 03:12:12;;;;;;;4.03;3.63;;;11.60;99.90;;;;;;5041450;28;20777;-70
2021/05/13 03:14:38;;;;;;;3.67;3.37;;;11.60;99.90;;;;;;5040806;28;20511;-70
2021/05/13 03:17:04;;;;;;;3.80;3.50;;;11.60;99.90;;;;;;5041491;28;20196;-69
2021/05/13 03:19:56;;;;;;;3.60;3.20;;;11.50;99.90;;;;;;5041529;28;20441;-70
2021/05/13 03:22:17;;;;;;;5.70;3.80;;;11.50;99.90;;;;;;5042020;28;20255;-70
2021/05/13 03:24:50;;;;;;;3.70;3.40;;;11.50;99.90;;;;;;5040287;28;20561;-70
2021/05/13 03:27:39;;;;;;;3.93;3.53;;;11.50;99.90;;;;;;5041865;28;20457;-69
2021/05/13 03:30:05;;;;;;;5.90;3.30;;;11.50;99.90;;;;;;5042225;28;20898;-69
2021/05/13 03:32:31;;;;;;;3.53;3.23;;;11.50;99.90;;;;;;5039966;28;20478;-70
2021/05/13 03:34:57;;;;;;;4.87;3.60;;;11.40;99.90;;;;;;5041738;28;20486;-69
2021/05/13 03:37:26;;;;;;;11.30;3.80;;;11.40;99.90;;;;;;5044133;28;21546;-69
2021/05/13 03:39:52;;;;;;;5.53;3.80;;;11.40;99.90;;;;;;5040877;28;20199;-71
2021/05/13 03:42:18;;;;;;;3.57;3.27;;;11.40;99.90;;;;;;5041472;28;20466;-69
2021/05/13 03:44:44;;;;;;;4.70;3.50;;;11.40;99.90;;;;;;5040605;28;20470;-68
2021/05/13 03:47:10;;;;;;;4.90;3.50;;;11.40;99.90;;;;;;5042233;28;20188;-70
2021/05/13 03:49:35;;;;;;;3.70;3.33;;;11.30;99.90;;;;;;5041376;28;20811;-70
2021/05/13 03:52:01;;;;;;;4.07;3.57;;;11.30;99.90;;;;;;5042971;28;20215;-69
2021/05/13 03:54:27;;;;;;;3.67;3.37;;;11.30;99.90;;;;;;5040474;28;20245;-70
2021/05/13 03:56:53;;;;;;;4.67;3.50;;;11.30;99.90;;;;;;5040915;28;20188;-69
2021/05/13 03:59:20;;;;;;;4.87;3.50;;;11.30;99.90;;;;;;5041279;28;20203;-69
2021/05/13 04:04:30;;;;;;;3.63;3.33;;;11.20;99.90;;;;;;5042285;28;21231;-69
2021/05/13 04:06:56;;;;;;;3.33;3.03;;;11.30;99.90;;;;;;5041461;28;20949;-68
2021/05/13 04:09:22;;;;;;;4.90;3.10;;;11.30;99.90;;;;;;5040690;28;20449;-69
2021/05/13 04:11:48;;;;;;;3.93;3.20;;;11.30;99.90;;;;;;5042468;28;20777;-69
2021/05/13 04:14:13;;;;;;;3.23;2.93;;;11.30;99.90;;;;;;5039833;28;20184;-69
2021/05/13 04:16:42;;;;;;;4.90;3.17;;;11.30;99.90;;;;;;5038773;28;20191;-69
2021/05/13 04:19:07;;;;;;;3.67;3.20;;;11.30;99.90;;;;;;5040889;28;20192;-68
2021/05/13 04:21:33;;;;;;;4.10;3.70;;;11.30;99.90;;;;;;5039842;28;20476;-70
2021/05/13 04:23:59;;;;;;;3.93;3.53;;;11.30;99.90;;;;;;5037575;28;20188;-70
2021/05/13 04:26:25;;;;;;;5.47;3.67;;;11.30;99.90;;;;;;5042395;28;20434;-69
2021/05/13 04:28:51;;;;;;;4.00;3.60;;;11.30;99.90;;;;;;5039674;28;20438;-69
2021/05/13 04:31:17;;;;;;;3.93;3.53;;;11.40;99.90;;;;;;5039580;28;20477;-69
2021/05/13 04:33:43;;;;;;;4.10;3.70;;;11.40;99.90;;;;;;5040062;28;20270;-68
2021/05/13 04:36:08;;;;;;;5.23;3.83;;;11.40;99.90;;;;;;5040802;28;20454;-71
2021/05/13 04:38:34;;;;;;;4.40;3.77;;;11.40;99.90;;;;;;5040203;28;20187;-70
2021/05/13 04:41:00;;;;;;;4.33;3.47;;;11.40;99.90;;;;;;5039754;28;20523;-70
2021/05/13 04:43:36;;;;;;;5.20;4.70;;;11.40;99.90;;;;;;5039181;28;20212;-71
2021/05/13 04:46:04;;;;;;;4.30;3.90;;;11.40;99.90;;;;;;5038953;28;20860;-69
2021/05/13 04:48:51;;;;;;;4.20;3.80;;;11.50;99.90;;;;;;5044756;28;20437;-70
2021/05/13 04:51:16;;;;;;;4.50;4.00;;;11.50;99.90;;;;;;5044826;28;20984;-69
2021/05/13 04:53:43;;;;;;;4.90;3.70;;;11.50;99.90;;;;;;5038035;28;20442;-70
2021/05/13 04:56:08;;;;;;;4.00;3.60;;;11.50;99.90;;;;;;5040908;28;20560;-71
2021/05/13 04:58:34;;;;;;;4.43;3.60;;;11.50;99.90;;;;;;5038544;28;20521;-71
2021/05/13 05:00:59;;;;;;;6.47;3.77;;;11.50;99.90;;;;;;5039964;28;20240;-69
2021/05/13 05:03:25;;;;;;;4.43;3.30;;;11.60;99.90;;;;;;5040065;28;20192;-69
2021/05/13 05:05:51;;;;;;;5.87;4.10;;;11.60;99.90;;;;;;5037884;28;20273;-70
2021/05/13 05:08:16;;;;;;;4.30;3.63;;;11.60;99.90;;;;;;5041710;28;20584;-70
2021/05/13 05:10:42;;;;;;;4.63;3.23;;;11.70;99.90;;;;;;5039393;28;20188;-69
2021/05/13 05:13:08;;;;;;;4.20;3.70;;;11.70;99.90;;;;;;5020428;28;20196;-71
2021/05/13 05:15:34;;;;;;;3.80;3.50;;;11.80;99.90;;;;;;5040921;28;20485;-71
2021/05/13 05:17:59;;;;;;;6.10;4.40;;;11.80;99.90;;;;;;5039221;28;20219;-71
2021/05/13 05:20:25;;;;;;;5.40;3.83;;;11.90;99.90;;;;;;5039910;28;20203;-70
2021/05/13 05:22:51;;;;;;;3.40;3.10;;;11.90;99.90;;;;;;5039793;28;20290;-71
2021/05/13 05:25:16;;;;;;;4.33;3.90;;;11.90;99.90;;;;;;5038632;28;20216;-69
2021/05/13 05:27:42;;;;;;;4.03;3.63;;;12.00;99.90;;;;;;5037726;28;22924;-70
2021/05/13 05:30:08;;;;;;;3.80;3.50;;;12.00;99.90;;;;;;5040493;28;20597;-70
2021/05/13 05:32:34;;;;;;;4.73;3.83;;;12.00;99.90;;;;;;5038178;28;20667;-71
2021/05/13 05:35:03;;;;;;;6.77;4.07;;;12.10;99.90;;;;;;5040041;28;20450;-69
2021/05/13 05:37:30;;;;;;;4.93;3.40;;;12.10;99.90;;;;;;5040643;28;20517;-70
2021/05/13 05:39:55;;;;;;;5.23;3.80;;;12.10;99.90;;;;;;5036674;28;20457;-70
2021/05/13 05:42:21;;;;;;;4.93;4.13;;;12.20;99.90;;;;;;5038969;28;20466;-71
2021/05/13 05:44:46;;;;;;;3.90;3.40;;;12.20;99.90;;;;;;5038301;28;20212;-70
2021/05/13 05:47:16;;;;;;;4.23;3.83;;;12.30;99.90;;;;;;5020959;28;20298;-70
2021/05/13 05:49:41;;;;;;;4.57;4.17;;;12.30;99.90;;;;;;5039216;28;20231;-70
2021/05/13 05:52:07;;;;;;;4.90;4.20;;;12.40;99.90;;;;;;5040994;28;21204;-69
2021/05/13 05:54:32;;;;;;;4.57;4.10;;;12.40;99.90;;;;;;5039360;28;20208;-69
2021/05/13 05:56:58;;;;;;;5.00;3.77;;;12.40;99.90;;;;;;5041873;28;20194;-70
2021/05/13 05:59:24;;;;;;;5.80;4.27;;;12.50;99.90;;;;;;5040111;28;20618;-70
2021/05/13 06:01:49;;;;;;;5.03;4.53;;;12.60;99.90;;;;;;5018772;28;20219;-70
2021/05/13 06:04:15;;;;;;;4.60;4.20;;;12.60;99.90;;;;;;5039422;28;20184;-70
2021/05/13 06:06:40;;;;;;;5.53;4.60;;;12.70;99.90;;;;;;5020781;28;20561;-71
2021/05/13 06:09:06;;;;;;;5.60;4.30;;;12.70;99.90;;;;;;5039706;28;21103;-71
2021/05/13 06:11:32;;;;;;;6.03;4.10;;;12.80;99.90;;;;;;5039475;28;20891;-70
2021/05/13 06:13:57;;;;;;;6.33;3.93;;;12.90;99.90;;;;;;5037213;28;20211;-71
2021/05/13 06:16:23;;;;;;;7.53;4.30;;;13.00;99.90;;;;;;5038833;28;20203;-71
2021/05/13 06:18:54;;;;;;;6.90;4.27;;;13.10;99.90;;;;;;5038600;28;20197;-71
2021/05/13 06:21:21;;;;;;;4.63;4.00;;;13.10;99.90;;;;;;5037774;28;20576;-70
2021/05/13 06:23:49;;;;;;;6.87;4.50;;;13.10;99.90;;;;;;5043502;28;20574;-70
2021/05/13 06:26:54;;;;;;;6.93;4.60;;;13.20;99.90;;;;;;5043042;28;20475;-69
2021/05/13 06:29:19;;;;;;;5.00;4.17;;;13.30;99.90;;;;;;5029419;28;20795;-69
2021/05/13 06:31:45;;;;;;;4.27;3.97;;;13.40;99.90;;;;;;5042915;28;20438;-70
2021/05/13 06:34:10;;;;;;;5.83;4.03;;;13.50;99.90;;;;;;5042070;28;20795;-70
2021/05/13 06:36:39;;;;;;;6.80;4.40;;;13.50;99.90;;;;;;5040711;28;20270;-70
2021/05/13 06:39:05;;;;;;;3.70;3.40;;;13.60;99.90;;;;;;5042585;28;20247;-69
2021/05/13 06:41:30;;;;;;;4.10;3.80;;;13.60;99.90;;;;;;5042270;28;21504;-69
2021/05/13 06:43:57;;;;;;;4.53;3.70;;;13.60;99.90;;;;;;5042110;28;20472;-69
2021/05/13 06:46:23;;;;;;;4.23;3.83;;;13.70;99.90;;;;;;5043864;28;20648;-70
2021/05/13 06:48:49;;;;;;;12.37;3.93;;;13.70;99.90;;;;;;5042405;28;20513;-69
2021/05/13 06:51:14;;;;;;;4.10;3.80;;;13.80;99.90;;;;;;5040584;28;20560;-69
2021/05/13 06:53:40;;;;;;;5.23;3.57;;;13.80;99.90;;;;;;5043932;28;20533;-71
2021/05/13 06:56:05;;;;;;;4.00;3.60;;;13.90;99.90;;;;;;5043538;28;20851;-69
2021/05/13 06:58:31;;;;;;;4.37;3.97;;;14.00;99.90;;;;;;5023654;28;20196;-68
2021/05/13 07:00:57;;;;;;;8.63;4.33;;;14.00;99.90;;;;;;5044183;28;20217;-69
2021/05/13 07:03:22;;;;;;;8.33;4.67;;;14.10;99.90;;;;;;5040804;28;20191;-70
2021/05/13 07:05:48;;;;;;;5.03;3.10;;;14.20;99.90;;;;;;5040885;28;20845;-70
2021/05/13 07:08:14;;;;;;;4.70;3.10;;;14.30;99.90;;;;;;5042657;28;20176;-69
2021/05/13 07:10:40;;;;;;;7.17;3.50;;;14.40;99.90;;;;;;5043290;28;20188;-69
2021/05/13 07:13:05;;;;;;;3.03;2.77;;;14.40;99.90;;;;;;5039644;28;20188;-70
2021/05/13 07:15:32;;;;;;;3.70;3.20;;;14.40;99.90;;;;;;5040921;28;20956;-69
2021/05/13 07:17:58;;;;;;;3.27;2.97;;;14.50;99.90;;;;;;5040076;28;20199;-68
2021/05/13 07:20:24;;;;;;;3.37;3.07;;;14.60;99.90;;;;;;5043190;28;20430;-69
2021/05/13 07:22:52;;;;;;;5.50;3.33;;;14.70;99.90;;;;;;5041412;28;20476;-69
2021/05/13 07:25:18;;;;;;;3.83;3.53;;;14.80;99.90;;;;;;5041566;28;20466;-70
2021/05/13 07:27:44;;;;;;;3.33;3.00;;;14.80;99.90;;;;;;5043512;28;20430;-70
2021/05/13 07:30:11;;;;;;;3.67;3.10;;;14.90;99.90;;;;;;5042495;28;20430;-70
2021/05/13 07:32:37;;;;;;;5.83;3.27;;;15.00;99.90;;;;;;5038126;28;20195;-70
2021/05/13 07:35:03;;;;;;;4.07;3.13;;;15.10;99.90;;;;;;5042050;28;20548;-70
2021/05/13 07:37:29;;;;;;;4.40;2.90;;;15.30;99.90;;;;;;5041747;28;20461;-70
2021/05/13 07:39:54;;;;;;;3.30;3.00;;;15.40;99.90;;;;;;5041350;28;20449;-70
2021/05/13 07:42:20;;;;;;;3.40;3.10;;;15.40;99.90;;;;;;5041635;28;20959;-71
2021/05/13 07:44:46;;;;;;;4.70;2.80;;;15.50;99.90;;;;;;5039627;28;20215;-70
2021/05/13 07:47:12;;;;;;;4.57;4.00;;;15.60;99.90;;;;;;5040846;28;20261;-71
2021/05/13 07:49:37;;;;;;;4.47;3.43;;;15.50;99.90;;;;;;5042473;28;20187;-70
2021/05/13 07:52:03;;;;;;;6.73;3.00;;;15.60;99.90;;;;;;5021740;28;20250;-71
2021/05/13 07:54:29;;;;;;;3.40;3.03;;;15.70;99.90;;;;;;5041251;28;20871;-69
2021/05/13 07:56:55;;;;;;;3.30;2.67;;;15.80;99.90;;;;;;5040261;28;20192;-70
2021/05/13 07:59:20;;;;;;;3.70;2.80;;;15.90;99.90;;;;;;5041856;28;20192;-71
2021/05/13 08:01:46;;;;;;;3.20;2.90;;;16.00;99.90;;;;;;5040392;28;20219;-69
2021/05/13 08:04:12;;;;;;;2.80;2.60;;;16.10;99.90;;;;;;5039015;28;20207;-69
2021/05/13 08:06:37;;;;;;;3.43;2.70;;;16.10;99.90;;;;;;5039112;28;20311;-69
2021/05/13 08:09:04;;;;;;;4.30;2.63;;;16.10;99.90;;;;;;5042527;28;20195;-70
2021/05/13 08:11:29;;;;;;;6.97;2.60;;;16.20;99.90;;;;;;5021305;28;20190;-69
2021/05/13 08:13:55;;;;;;;3.83;3.53;;;16.40;99.90;;;;;;5038926;28;20812;-70
2021/05/13 08:16:20;;;;;;;3.07;2.70;;;16.50;99.90;;;;;;5038945;28;20212;-70
2021/05/13 08:18:47;;;;;;;2.97;2.73;;;16.50;99.90;;;;;;5038961;28;20207;-69
2021/05/13 08:21:12;;;;;;;5.50;2.67;;;16.50;99.90;;;;;;5039457;28;20287;-70
2021/05/13 08:23:38;;;;;;;2.90;2.60;;;16.50;99.90;;;;;;5040308;28;20530;-70
2021/05/13 08:26:03;;;;;;;4.23;2.63;;;16.50;99.90;;;;;;5039087;28;20618;-70
2021/05/13 08:28:29;;;;;;;3.50;2.60;;;16.60;99.90;;;;;;5038176;28;20184;-70
2021/05/13 08:30:55;;;;;;;3.17;2.73;;;16.60;99.90;;;;;;5042357;28;20270;-69
2021/05/13 08:33:20;;;;;;;3.23;2.30;;;16.70;99.90;;;;;;5038896;28;20246;-70
2021/05/13 08:35:46;;;;;;;2.73;2.50;;;16.90;99.90;;;;;;5038378;28;20215;-69
2021/05/13 08:38:11;;;;;;;3.67;2.60;;;17.00;99.90;;;;;;5041607;28;20242;-69
2021/05/13 08:40:37;;;;;;;3.13;2.83;;;17.10;99.90;;;;;;5039161;28;20184;-68
2021/05/13 08:43:03;;;;;;;2.87;2.57;;;17.10;99.90;;;;;;5039003;28;20643;-72
2021/05/13 08:45:33;;;;;;;2.97;2.60;;;17.00;99.90;;;;;;5020532;28;20215;-70
2021/05/13 08:48:01;;;;;;;2.90;2.40;;;17.10;99.90;;;;;;5039266;28;20488;-72
2021/05/13 08:50:27;;;;;;;3.00;2.80;;;17.10;99.90;;;;;;5038473;28;20442;-70
2021/05/13 08:52:55;;;;;;;3.30;2.67;;;17.10;99.90;;;;;;5040914;28;20945;-70
2021/05/13 08:55:20;;;;;;;4.70;2.97;;;17.20;99.90;;;;;;5036048;28;20214;-71
2021/05/13 08:57:46;;;;;;;5.70;2.57;;;17.20;99.90;;;;;;5036986;28;20438;-71
2021/05/13 09:00:12;;;;;;;2.77;2.57;;;17.30;99.90;;;;;;5038542;28;20805;-69
2021/05/13 09:02:47;;;;;;;4.37;3.03;;;17.20;99.90;;;;;;5039113;28;20291;-69
2021/05/13 09:05:13;;;;;;;3.60;2.80;;;17.30;99.90;;;;;;5042087;28;20532;-68
2021/05/13 09:07:38;;;;;;;4.03;3.10;;;17.40;99.90;;;;;;5038322;28;20514;-69
2021/05/13 09:10:08;;;;;;;3.17;2.87;;;17.50;99.90;;;;;;5040534;28;20203;-69
2021/05/13 09:12:39;;;;;;;4.03;2.80;;;17.50;99.90;;;;;;5041376;28;20192;-70
2021/05/13 09:15:16;;;;;;;6.47;3.20;;;17.50;99.90;;;;;;5040926;28;20446;-69
2021/05/13 09:17:43;;;;;;;3.40;2.80;;;17.60;99.90;;;;;;5021638;28;20462;-69
2021/05/13 09:20:38;;;;;;;3.90;3.37;;;17.70;99.90;;;;;;5022392;28;20894;-70
2021/05/13 09:23:14;;;;;;;3.77;3.30;;;17.70;99.90;;;;;;5039720;28;20449;-71
2021/05/13 09:25:42;;;;;;;3.73;3.43;;;17.80;99.90;;;;;;5037621;28;21049;-72
2021/05/13 09:28:08;;;;;;;4.03;3.73;;;17.80;99.90;;;;;;5040534;28;20549;-70
2021/05/13 09:30:35;;;;;;;3.90;3.60;;;17.70;99.90;;;;;;5039264;28;20509;-72
2021/05/13 09:33:02;;;;;;;3.63;3.30;;;17.70;99.90;;;;;;5007166;28;20187;-70
2021/05/13 09:35:30;;;;;;;4.77;3.30;;;17.80;99.90;;;;;;5039307;28;21560;-70
2021/05/13 09:38:00;;;;;;;3.60;3.30;;;18.00;99.90;;;;;;5030454;28;20461;-68
2021/05/13 09:40:34;;;;;;;4.60;3.10;;;18.10;99.90;;;;;;5036762;28;20438;-69
2021/05/13 09:43:19;;;;;;;8.43;3.47;;;18.10;99.90;;;;;;5020577;28;20430;-69
2021/05/13 09:45:50;;;;;;;7.00;4.10;;;18.30;99.90;;;;;;5040522;28;20442;-69
2021/05/13 09:48:43;;;;;;;3.10;2.90;;;18.30;99.90;;;;;;5040690;28;20920;-69
2021/05/13 09:51:23;;;;;;;8.90;3.67;;;18.40;99.90;;;;;;5034824;28;20553;-70
2021/05/13 09:54:07;;;;;;;3.87;2.60;;;18.70;99.90;;;;;;5037050;28;20439;-70
2021/05/13 09:56:34;;;;;;;2.97;2.60;;;18.70;99.90;;;;;;5037433;28;20454;-68
2021/05/13 09:59:19;;;;;;;4.13;2.83;;;18.60;99.90;;;;;;5044400;28;20465;-69
2021/05/13 10:01:45;;;;;;;7.50;3.13;;;18.70;99.90;;;;;;5026651;28;20470;-69
2021/05/13 10:04:11;;;;;;;10.57;3.73;;;18.80;99.90;;;;;;5044018;28;20433;-71
2021/05/13 10:06:36;;;;;;;3.30;2.50;;;18.90;99.90;;;;;;5043819;28;20200;-72
2021/05/13 10:09:03;;;;;;;3.20;2.80;;;18.90;99.90;;;;;;5044406;28;20952;-69
2021/05/13 10:11:30;;;;;;;9.00;3.20;;;19.00;99.90;;;;;;5044389;28;20199;-69
2021/05/13 10:13:56;;;;;;;4.60;3.57;;;18.90;99.90;;;;;;5044996;28;20494;-71
2021/05/13 10:16:23;;;;;;;3.73;3.33;;;18.90;99.90;;;;;;5045301;28;20450;-71
2021/05/13 10:18:54;;;;;;;3.90;3.60;;;19.00;99.90;;;;;;5045908;28;20457;-72
2021/05/13 10:21:22;;;;;;;3.80;3.40;;;19.30;99.90;;;;;;5043037;28;20470;-72
2021/05/13 10:23:50;;;;;;;4.07;3.73;;;19.40;99.90;;;;;;5046149;28;20549;-72
2021/05/13 10:26:35;;;;;;;4.70;3.50;;;19.40;99.90;;;;;;5043997;28;20929;-70
2021/05/13 10:29:21;;;;;;;3.90;3.60;;;19.70;99.90;;;;;;5045647;28;20430;-70
2021/05/13 10:32:19;;;;;;;3.67;3.40;;;19.70;99.90;;;;;;5027790;28;20580;-70
2021/05/13 10:34:45;;;;;;;4.20;3.90;;;19.50;99.90;;;;;;5043502;28;20465;-69
2021/05/13 10:37:18;;;;;;;3.70;3.40;;;19.30;99.90;;;;;;5044243;28;20948;-71
2021/05/13 10:42:38;;;;;;;4.37;3.93;;;18.80;99.90;;;;;;5044762;28;20500;-72
2021/05/13 10:45:25;;;;;;;3.83;3.43;;;18.80;99.90;;;;;;5023092;28;20476;-70
2021/05/13 10:48:11;;;;;;;3.97;3.20;;;18.70;99.90;;;;;;5043179;28;20849;-69
2021/05/13 10:50:48;;;;;;;4.00;3.67;;;18.90;99.90;;;;;;5040711;28;20439;-69
2021/05/13 10:53:49;;;;;;;5.40;3.50;;;19.00;99.90;;;;;;5036998;28;20468;-69
2021/05/13 10:56:20;;;;;;;3.40;2.80;;;19.20;99.90;;;;;;4958071;28;20452;-70
2021/05/13 10:58:52;;;;;;;3.87;3.23;;;19.30;99.90;;;;;;5029344;28;20465;-70
2021/05/13 11:01:45;;;;;;;4.13;3.50;;;19.40;99.90;;;;;;5042776;28;20525;-70
2021/05/13 11:04:20;;;;;;;3.13;2.77;;;19.70;99.90;;;;;;5040912;28;20434;-72
2021/05/13 11:07:03;;;;;;;4.47;3.23;;;19.50;99.90;;;;;;5042200;28;20442;-69
2021/05/13 11:09:45;;;;;;;3.37;3.03;;;19.30;99.90;;;;;;5041669;28;20552;-68
2021/05/13 11:12:28;;;;;;;3.70;3.40;;;19.30;99.90;;;;;;5043273;28;21008;-70
2021/05/13 11:20:20;;;;;;;3.50;3.20;;;20.40;99.90;;;;;;5045500;28;20427;-69
2021/05/13 11:23:12;;;;;;;2.90;2.70;;;21.30;99.90;;;;;;5042520;28;20466;-72
2021/05/13 11:25:44;;;;;;;4.30;2.80;;;21.50;99.90;;;;;;5043231;28;20537;-69
2021/05/13 11:28:23;;;;;;;3.40;3.10;;;21.80;99.90;;;;;;5041551;28;20430;-72
2021/05/13 11:30:51;;;;;;;6.83;3.00;;;22.10;99.90;;;;;;5043296;28;20441;-72
2021/05/13 11:33:19;;;;;;;3.80;3.00;;;22.20;99.90;;;;;;5042633;28;20865;-69
2021/05/13 11:35:46;;;;;;;3.20;2.97;;;22.90;99.90;;;;;;5009591;28;20451;-71
2021/05/13 11:38:23;;;;;;;3.33;3.03;;;22.70;99.90;;;;;;5044287;28;20430;-72
2021/05/13 11:40:50;;;;;;;3.20;3.00;;;23.40;99.50;;;;;;5035209;28;20503;-73
2021/05/13 11:43:20;;;;;;;2.97;2.77;;;23.30;99.90;;;;;;5036544;28;20525;-69
2021/05/13 11:45:47;;;;;;;3.60;3.30;;;22.90;99.90;;;;;;5034140;28;20992;-70
2021/05/13 11:48:22;;;;;;;3.53;3.33;;;22.50;99.90;;;;;;5040199;28;20461;-70
2021/05/13 11:50:48;;;;;;;3.63;3.33;;;22.50;99.80;;;;;;5033285;28;20438;-69
2021/05/13 11:53:15;;;;;;;8.90;8.10;;;23.40;98.90;;;;;;5035685;28;20545;-69
2021/05/13 11:56:13;;;;;;;5.40;4.90;;;25.00;98.40;;;;;;5036451;28;20499;-71
2021/05/13 12:04:37;;;;;;;3.70;3.33;;;25.90;86.50;;;;;;5019039;28;20549;-69
2021/05/13 12:07:03;;;;;;;4.33;3.50;;;23.90;90.70;;;;;;5018692;28;20431;-70
2021/05/13 12:09:33;;;;;;;3.93;3.57;;;22.40;92.70;;;;;;5039285;28;20302;-70
2021/05/13 12:12:00;;;;;;;4.40;3.30;;;21.70;92.70;;;;;;5037161;28;20200;-69
2021/05/13 12:14:28;;;;;;;4.40;4.07;;;21.50;94.50;;;;;;5034438;28;20474;-69
2021/05/13 12:17:01;;;;;;;3.50;3.30;;;21.30;95.40;;;;;;5037892;28;20495;-68
2021/05/13 12:19:28;;;;;;;4.80;3.40;;;21.10;94.60;;;;;;5035277;28;20453;-69
2021/05/13 12:21:59;;;;;;;3.53;3.23;;;20.90;94.30;;;;;;5032693;28;20546;-69
2021/05/13 12:24:37;;;;;;;3.57;3.23;;;20.90;95.00;;;;;;5037892;28;20595;-69
2021/05/13 12:27:03;;;;;;;6.07;3.53;;;21.00;96.10;;;;;;5033745;28;20450;-70
2021/05/13 12:29:30;;;;;;;3.97;3.60;;;20.70;96.20;;;;;;5038714;28;20431;-70
2021/05/13 12:31:56;;;;;;;3.10;2.80;;;20.60;95.30;;;;;;5036498;28;20477;-70
2021/05/13 12:34:42;;;;;;;3.13;2.83;;;20.30;95.00;;;;;;5034078;28;20846;-70
2021/05/13 12:37:09;;;;;;;3.40;3.10;;;19.90;95.40;;;;;;5036312;28;20187;-70
2021/05/13 12:39:39;;;;;;;5.33;3.23;;;19.60;96.80;;;;;;5038259;28;20474;-70
2021/05/13 12:42:24;;;;;;;3.07;2.87;;;19.50;97.70;;;;;;5037071;28;20512;-69
2021/05/13 12:44:50;;;;;;;2.70;2.50;;;19.00;99.60;;;;;;5037357;28;20881;-69
2021/05/13 12:47:24;;;;;;;3.00;2.70;;;18.60;99.90;;;;;;5036598;28;20434;-69
2021/05/13 12:49:59;;;;;;;5.33;2.70;;;18.10;99.90;;;;;;5033639;28;20439;-71
2021/05/13 12:52:25;;;;;;;3.73;2.63;;;17.60;99.90;;;;;;5036694;28;20444;-70
2021/05/13 12:55:15;;;;;;;2.90;2.60;;;17.10;99.90;;;;;;5035383;28;20474;-70
2021/05/13 12:57:44;;;;;;;2.73;2.30;;;16.60;99.90;;;;;;5034070;28;20187;-68
2021/05/13 13:00:10;;;;;;;2.47;2.20;;;16.00;99.90;;;;;;5035612;28;20553;-69
2021/05/13 13:02:36;;;;;;;2.37;2.10;;;15.60;99.90;;;;;;5034286;28;20462;-72
2021/05/13 13:05:05;;;;;;;2.33;2.13;;;15.40;99.90;;;;;;5034729;28;20458;-70
2021/05/13 13:07:44;;;;;;;3.70;2.40;;;15.10;99.90;;;;;;5038555;28;20198;-72
2021/05/13 13:10:32;;;;;;;3.13;2.10;;;14.90;99.90;;;;;;5030624;28;20437;-70
2021/05/13 13:13:12;;;;;;;4.23;2.10;;;14.70;99.90;;;;;;5033970;28;20457;-69